sensor_id;sensor_type;location;lat;lon;timestamp;temperature;humidity
435;DHT22;204;48.942;9.256;2023-09-30T00:01:00;16.90;1.00
435;DHT22;204;48.942;9.256;2023-09-30T00:03:26;16.80;1.00
435;DHT22;204;48.942;9.256;2023-09-30T00:05:51;16.80;1.00
435;DHT22;204;48.942;9.256;2023-09-30T00:08:17;16.90;1.00
435;DHT22;204;48.942;9.256;2023-09-30T00:10:42;16.90;1.00
435;DHT22;204;48.942;9.256;2023-09-30T00:13:08;16.90;1.00
435;DHT22;204;48.942;9.256;2023-09-30T00:15:34;16.90;1.00
435;DHT22;204;48.942;9.256;2023-09-30T00:17:59;16.90;1.00
435;DHT22;204;48.942;9.256;2023-09-30T00:20:29;16.90;1.00
435;DHT22;204;48.942;9.256;2023-09-30T00:22:55;16.90;1.00
435;DHT22;204;48.942;9.256;2023-09-30T00:25:20;16.90;1.00
435;DHT22;204;48.942;9.256;2023-09-30T00:27:47;16.80;1.00
435;DHT22;204;48.942;9.256;2023-09-30T00:30:13;16.80;1.00
435;DHT22;204;48.942;9.256;2023-09-30T00:32:38;16.80;1.00
435;DHT22;204;48.942;9.256;2023-09-30T00:35:05;16.70;1.00
435;DHT22;204;48.942;9.256;2023-09-30T00:37:40;16.70;1.00
435;DHT22;204;48.942;9.256;2023-09-30T00:40:07;16.70;1.00
435;DHT22;204;48.942;9.256;2023-09-30T00:42:37;16.60;1.00
435;DHT22;204;48.942;9.256;2023-09-30T00:45:04;16.60;1.00
435;DHT22;204;48.942;9.256;2023-09-30T00:47:30;16.50;1.00
435;DHT22;204;48.942;9.256;2023-09-30T00:49:56;16.50;1.00
435;DHT22;204;48.942;9.256;2023-09-30T00:52:22;16.60;1.00
435;DHT22;204;48.942;9.256;2023-09-30T00:54:49;16.50;1.00
435;DHT22;204;48.942;9.256;2023-09-30T00:57:15;16.60;1.00
435;DHT22;204;48.942;9.256;2023-09-30T00:59:41;16.60;1.00
435;DHT22;204;48.942;9.256;2023-09-30T01:02:07;16.60;1.00
435;DHT22;204;48.942;9.256;2023-09-30T01:04:33;16.70;1.00
435;DHT22;204;48.942;9.256;2023-09-30T01:06:59;16.70;1.00
435;DHT22;204;48.942;9.256;2023-09-30T01:09:25;16.80;1.00
435;DHT22;204;48.942;9.256;2023-09-30T01:11:51;16.80;1.00
435;DHT22;204;48.942;9.256;2023-09-30T01:14:27;16.80;1.00
435;DHT22;204;48.942;9.256;2023-09-30T01:16:53;16.90;1.00
435;DHT22;204;48.942;9.256;2023-09-30T01:19:19;16.90;1.00
435;DHT22;204;48.942;9.256;2023-09-30T01:21:45;16.90;1.00
435;DHT22;204;48.942;9.256;2023-09-30T01:24:14;16.90;1.00
435;DHT22;204;48.942;9.256;2023-09-30T01:26:40;17.00;1.00
435;DHT22;204;48.942;9.256;2023-09-30T01:29:08;17.00;1.00
435;DHT22;204;48.942;9.256;2023-09-30T01:31:37;16.90;1.00
435;DHT22;204;48.942;9.256;2023-09-30T01:34:04;17.00;1.00
435;DHT22;204;48.942;9.256;2023-09-30T01:36:29;17.00;1.00
435;DHT22;204;48.942;9.256;2023-09-30T01:38:55;16.90;1.00
435;DHT22;204;48.942;9.256;2023-09-30T01:41:21;16.90;1.00
435;DHT22;204;48.942;9.256;2023-09-30T01:43:46;16.80;1.00
435;DHT22;204;48.942;9.256;2023-09-30T01:46:12;16.80;1.00
435;DHT22;204;48.942;9.256;2023-09-30T01:48:38;16.80;1.00
435;DHT22;204;48.942;9.256;2023-09-30T01:51:04;16.70;1.00
435;DHT22;204;48.942;9.256;2023-09-30T01:53:29;16.70;1.00
435;DHT22;204;48.942;9.256;2023-09-30T01:55:55;16.70;1.00
435;DHT22;204;48.942;9.256;2023-09-30T01:58:20;16.60;1.00
435;DHT22;204;48.942;9.256;2023-09-30T02:00:46;16.50;1.00
435;DHT22;204;48.942;9.256;2023-09-30T02:03:11;16.50;1.00
435;DHT22;204;48.942;9.256;2023-09-30T02:05:39;16.50;1.00
435;DHT22;204;48.942;9.256;2023-09-30T02:08:05;16.40;1.00
435;DHT22;204;48.942;9.256;2023-09-30T02:10:32;16.40;1.00
435;DHT22;204;48.942;9.256;2023-09-30T02:13:01;16.30;1.00
435;DHT22;204;48.942;9.256;2023-09-30T02:15:27;16.30;1.00
435;DHT22;204;48.942;9.256;2023-09-30T02:17:53;16.20;1.00
435;DHT22;204;48.942;9.256;2023-09-30T02:20:18;16.10;1.00
435;DHT22;204;48.942;9.256;2023-09-30T02:22:47;16.00;1.00
435;DHT22;204;48.942;9.256;2023-09-30T02:25:14;15.90;1.00
435;DHT22;204;48.942;9.256;2023-09-30T02:27:41;15.90;1.00
435;DHT22;204;48.942;9.256;2023-09-30T02:30:08;15.80;1.00
435;DHT22;204;48.942;9.256;2023-09-30T02:32:36;15.80;1.00
435;DHT22;204;48.942;9.256;2023-09-30T02:35:01;15.80;1.00
435;DHT22;204;48.942;9.256;2023-09-30T02:37:27;15.80;1.00
435;DHT22;204;48.942;9.256;2023-09-30T02:39:52;15.70;1.00
435;DHT22;204;48.942;9.256;2023-09-30T02:42:18;15.70;1.00
435;DHT22;204;48.942;9.256;2023-09-30T02:44:44;15.60;1.00
435;DHT22;204;48.942;9.256;2023-09-30T02:47:10;15.60;1.00
435;DHT22;204;48.942;9.256;2023-09-30T02:49:36;15.50;1.00
435;DHT22;204;48.942;9.256;2023-09-30T02:52:02;15.50;1.00
435;DHT22;204;48.942;9.256;2023-09-30T02:54:28;15.40;1.00
435;DHT22;204;48.942;9.256;2023-09-30T02:56:54;15.40;1.00
435;DHT22;204;48.942;9.256;2023-09-30T02:59:20;15.40;1.00
435;DHT22;204;48.942;9.256;2023-09-30T03:01:47;15.40;1.00
435;DHT22;204;48.942;9.256;2023-09-30T03:04:13;15.30;1.00
435;DHT22;204;48.942;9.256;2023-09-30T03:06:39;15.30;1.00
435;DHT22;204;48.942;9.256;2023-09-30T03:09:05;15.30;1.00
435;DHT22;204;48.942;9.256;2023-09-30T03:11:31;15.20;1.00
435;DHT22;204;48.942;9.256;2023-09-30T03:13:57;15.20;1.00
435;DHT22;204;48.942;9.256;2023-09-30T03:16:23;15.10;1.00
435;DHT22;204;48.942;9.256;2023-09-30T03:18:50;15.10;1.00
435;DHT22;204;48.942;9.256;2023-09-30T03:21:16;15.00;1.00
435;DHT22;204;48.942;9.256;2023-09-30T03:23:43;15.00;1.00
435;DHT22;204;48.942;9.256;2023-09-30T03:26:08;14.90;1.00
435;DHT22;204;48.942;9.256;2023-09-30T03:28:36;14.90;1.00
435;DHT22;204;48.942;9.256;2023-09-30T03:31:03;14.90;1.00
435;DHT22;204;48.942;9.256;2023-09-30T03:33:31;14.80;1.00
435;DHT22;204;48.942;9.256;2023-09-30T03:35:57;14.80;1.00
435;DHT22;204;48.942;9.256;2023-09-30T03:38:24;14.70;1.00
435;DHT22;204;48.942;9.256;2023-09-30T03:40:49;14.70;1.00
435;DHT22;204;48.942;9.256;2023-09-30T03:43:16;14.60;1.00
435;DHT22;204;48.942;9.256;2023-09-30T03:45:41;14.60;1.00
435;DHT22;204;48.942;9.256;2023-09-30T03:48:07;14.50;1.00
435;DHT22;204;48.942;9.256;2023-09-30T03:50:33;14.50;1.00
435;DHT22;204;48.942;9.256;2023-09-30T03:53:02;14.40;1.00
435;DHT22;204;48.942;9.256;2023-09-30T03:55:30;14.40;1.00
435;DHT22;204;48.942;9.256;2023-09-30T03:57:57;14.40;1.00
435;DHT22;204;48.942;9.256;2023-09-30T04:00:23;14.30;1.00
435;DHT22;204;48.942;9.256;2023-09-30T04:02:50;14.30;1.00
435;DHT22;204;48.942;9.256;2023-09-30T04:05:19;14.20;1.00
435;DHT22;204;48.942;9.256;2023-09-30T04:07:44;14.20;1.00
435;DHT22;204;48.942;9.256;2023-09-30T04:10:10;14.20;1.00
435;DHT22;204;48.942;9.256;2023-09-30T04:12:36;14.20;1.00
435;DHT22;204;48.942;9.256;2023-09-30T04:15:02;14.20;1.00
435;DHT22;204;48.942;9.256;2023-09-30T04:17:31;14.20;1.00
435;DHT22;204;48.942;9.256;2023-09-30T04:19:57;14.20;1.00
435;DHT22;204;48.942;9.256;2023-09-30T04:22:23;14.20;1.00
435;DHT22;204;48.942;9.256;2023-09-30T04:24:50;14.30;1.00
435;DHT22;204;48.942;9.256;2023-09-30T04:27:16;14.30;1.00
435;DHT22;204;48.942;9.256;2023-09-30T04:29:42;14.30;1.00
435;DHT22;204;48.942;9.256;2023-09-30T04:32:07;14.40;1.00
435;DHT22;204;48.942;9.256;2023-09-30T04:34:33;14.40;1.00
435;DHT22;204;48.942;9.256;2023-09-30T04:36:58;14.40;1.00
435;DHT22;204;48.942;9.256;2023-09-30T04:39:25;14.50;1.00
435;DHT22;204;48.942;9.256;2023-09-30T04:41:51;14.60;1.00
435;DHT22;204;48.942;9.256;2023-09-30T04:44:16;14.60;1.00
435;DHT22;204;48.942;9.256;2023-09-30T04:46:42;14.70;1.00
435;DHT22;204;48.942;9.256;2023-09-30T04:49:14;14.70;1.00
435;DHT22;204;48.942;9.256;2023-09-30T04:51:40;14.80;1.00
435;DHT22;204;48.942;9.256;2023-09-30T04:54:06;14.80;1.00
435;DHT22;204;48.942;9.256;2023-09-30T04:56:36;14.90;1.00
435;DHT22;204;48.942;9.256;2023-09-30T04:59:02;14.80;1.00
435;DHT22;204;48.942;9.256;2023-09-30T05:01:28;14.90;1.00
435;DHT22;204;48.942;9.256;2023-09-30T05:03:53;14.90;1.00
435;DHT22;204;48.942;9.256;2023-09-30T05:06:19;15.00;1.00
435;DHT22;204;48.942;9.256;2023-09-30T05:08:46;15.00;1.00
435;DHT22;204;48.942;9.256;2023-09-30T05:11:13;15.00;1.00
435;DHT22;204;48.942;9.256;2023-09-30T05:13:39;15.00;1.00
435;DHT22;204;48.942;9.256;2023-09-30T05:16:04;14.90;1.00
435;DHT22;204;48.942;9.256;2023-09-30T05:18:30;14.90;1.00
435;DHT22;204;48.942;9.256;2023-09-30T05:20:56;14.90;1.00
435;DHT22;204;48.942;9.256;2023-09-30T05:23:22;14.80;1.00
435;DHT22;204;48.942;9.256;2023-09-30T05:25:48;14.80;1.00
435;DHT22;204;48.942;9.256;2023-09-30T05:28:13;14.80;1.00
435;DHT22;204;48.942;9.256;2023-09-30T05:30:39;14.80;1.00
435;DHT22;204;48.942;9.256;2023-09-30T05:33:06;14.70;1.00
435;DHT22;204;48.942;9.256;2023-09-30T05:35:32;14.70;1.00
435;DHT22;204;48.942;9.256;2023-09-30T05:37:58;14.70;1.00
435;DHT22;204;48.942;9.256;2023-09-30T05:40:23;14.60;1.00
435;DHT22;204;48.942;9.256;2023-09-30T05:42:53;14.60;1.00
435;DHT22;204;48.942;9.256;2023-09-30T05:45:19;14.60;1.00
435;DHT22;204;48.942;9.256;2023-09-30T05:47:45;14.60;1.00
435;DHT22;204;48.942;9.256;2023-09-30T05:50:11;14.70;1.00
435;DHT22;204;48.942;9.256;2023-09-30T05:52:42;14.70;1.00
435;DHT22;204;48.942;9.256;2023-09-30T05:55:08;14.80;1.00
435;DHT22;204;48.942;9.256;2023-09-30T05:57:34;14.90;1.00
435;DHT22;204;48.942;9.256;2023-09-30T06:00:01;15.00;1.00
435;DHT22;204;48.942;9.256;2023-09-30T06:02:26;15.10;1.00
435;DHT22;204;48.942;9.256;2023-09-30T06:04:52;15.20;1.00
435;DHT22;204;48.942;9.256;2023-09-30T06:07:19;15.20;1.00
435;DHT22;204;48.942;9.256;2023-09-30T06:09:46;15.30;1.00
435;DHT22;204;48.942;9.256;2023-09-30T06:12:13;15.30;1.00
435;DHT22;204;48.942;9.256;2023-09-30T06:14:39;15.30;1.00
435;DHT22;204;48.942;9.256;2023-09-30T06:17:06;15.30;1.00
435;DHT22;204;48.942;9.256;2023-09-30T06:19:32;15.40;1.00
435;DHT22;204;48.942;9.256;2023-09-30T06:21:58;15.50;1.00
435;DHT22;204;48.942;9.256;2023-09-30T06:24:23;15.60;1.00
435;DHT22;204;48.942;9.256;2023-09-30T06:26:49;15.70;1.00
435;DHT22;204;48.942;9.256;2023-09-30T06:29:15;15.80;1.00
435;DHT22;204;48.942;9.256;2023-09-30T06:31:40;15.90;1.00
435;DHT22;204;48.942;9.256;2023-09-30T06:34:06;16.00;1.00
435;DHT22;204;48.942;9.256;2023-09-30T06:36:32;16.00;1.00
435;DHT22;204;48.942;9.256;2023-09-30T06:38:58;16.00;1.00
435;DHT22;204;48.942;9.256;2023-09-30T06:41:24;16.10;1.00
435;DHT22;204;48.942;9.256;2023-09-30T06:43:51;16.10;1.00
435;DHT22;204;48.942;9.256;2023-09-30T06:46:17;16.30;1.00
435;DHT22;204;48.942;9.256;2023-09-30T06:48:42;16.40;1.00
435;DHT22;204;48.942;9.256;2023-09-30T06:51:13;16.60;1.00
435;DHT22;204;48.942;9.256;2023-09-30T06:53:40;16.60;1.00
435;DHT22;204;48.942;9.256;2023-09-30T06:56:05;16.70;1.00
435;DHT22;204;48.942;9.256;2023-09-30T06:58:31;16.80;1.00
435;DHT22;204;48.942;9.256;2023-09-30T07:00:57;16.80;1.00
435;DHT22;204;48.942;9.256;2023-09-30T07:03:22;16.90;1.00
435;DHT22;204;48.942;9.256;2023-09-30T07:05:48;16.90;1.00
435;DHT22;204;48.942;9.256;2023-09-30T07:08:17;16.90;1.00
435;DHT22;204;48.942;9.256;2023-09-30T07:10:44;17.00;1.00
435;DHT22;204;48.942;9.256;2023-09-30T07:13:12;17.10;1.00
435;DHT22;204;48.942;9.256;2023-09-30T07:15:37;17.20;1.00
435;DHT22;204;48.942;9.256;2023-09-30T07:18:03;17.30;1.00
435;DHT22;204;48.942;9.256;2023-09-30T07:20:29;17.40;1.00
435;DHT22;204;48.942;9.256;2023-09-30T07:23:01;17.60;1.00
435;DHT22;204;48.942;9.256;2023-09-30T07:25:28;17.70;1.00
435;DHT22;204;48.942;9.256;2023-09-30T07:27:57;17.90;1.00
435;DHT22;204;48.942;9.256;2023-09-30T07:30:24;18.00;1.00
435;DHT22;204;48.942;9.256;2023-09-30T07:32:50;18.20;1.00
435;DHT22;204;48.942;9.256;2023-09-30T07:35:16;18.30;1.00
435;DHT22;204;48.942;9.256;2023-09-30T07:37:42;18.40;1.00
435;DHT22;204;48.942;9.256;2023-09-30T07:40:09;18.60;1.00
435;DHT22;204;48.942;9.256;2023-09-30T07:42:35;18.70;1.00
435;DHT22;204;48.942;9.256;2023-09-30T07:45:02;18.80;1.00
435;DHT22;204;48.942;9.256;2023-09-30T07:47:29;18.90;1.00
435;DHT22;204;48.942;9.256;2023-09-30T07:49:56;19.00;1.00
435;DHT22;204;48.942;9.256;2023-09-30T07:52:22;19.00;1.00
435;DHT22;204;48.942;9.256;2023-09-30T07:54:47;19.00;1.00
435;DHT22;204;48.942;9.256;2023-09-30T07:57:13;19.10;1.00
435;DHT22;204;48.942;9.256;2023-09-30T07:59:39;19.20;99.90
435;DHT22;204;48.942;9.256;2023-09-30T08:02:05;19.30;99.90
435;DHT22;204;48.942;9.256;2023-09-30T08:04:32;19.50;99.90
435;DHT22;204;48.942;9.256;2023-09-30T08:06:57;19.60;99.90
435;DHT22;204;48.942;9.256;2023-09-30T08:09:23;19.70;99.90
435;DHT22;204;48.942;9.256;2023-09-30T08:11:50;19.80;99.90
435;DHT22;204;48.942;9.256;2023-09-30T08:14:16;20.00;99.90
435;DHT22;204;48.942;9.256;2023-09-30T08:16:41;20.20;99.90
435;DHT22;204;48.942;9.256;2023-09-30T08:19:08;20.50;99.90
435;DHT22;204;48.942;9.256;2023-09-30T08:21:34;20.70;99.90
435;DHT22;204;48.942;9.256;2023-09-30T08:23:59;20.90;99.90
435;DHT22;204;48.942;9.256;2023-09-30T08:26:25;21.10;99.90
435;DHT22;204;48.942;9.256;2023-09-30T08:28:51;21.30;99.90
435;DHT22;204;48.942;9.256;2023-09-30T08:31:16;21.50;99.90
435;DHT22;204;48.942;9.256;2023-09-30T08:33:42;21.60;99.90
435;DHT22;204;48.942;9.256;2023-09-30T08:36:10;21.60;99.90
435;DHT22;204;48.942;9.256;2023-09-30T08:38:37;21.50;99.90
435;DHT22;204;48.942;9.256;2023-09-30T08:41:04;21.60;99.90
435;DHT22;204;48.942;9.256;2023-09-30T08:43:30;21.70;99.90
435;DHT22;204;48.942;9.256;2023-09-30T08:45:59;21.80;99.90
435;DHT22;204;48.942;9.256;2023-09-30T08:48:28;21.80;99.90
435;DHT22;204;48.942;9.256;2023-09-30T08:50:55;21.70;99.90
435;DHT22;204;48.942;9.256;2023-09-30T08:53:23;21.60;99.90
435;DHT22;204;48.942;9.256;2023-09-30T08:55:52;21.50;99.90
435;DHT22;204;48.942;9.256;2023-09-30T08:58:19;21.50;99.90
435;DHT22;204;48.942;9.256;2023-09-30T09:00:45;21.50;99.90
435;DHT22;204;48.942;9.256;2023-09-30T09:03:11;21.50;99.90
435;DHT22;204;48.942;9.256;2023-09-30T09:05:37;21.60;99.90
435;DHT22;204;48.942;9.256;2023-09-30T09:08:02;21.60;99.90
435;DHT22;204;48.942;9.256;2023-09-30T09:10:28;21.70;99.90
435;DHT22;204;48.942;9.256;2023-09-30T09:12:58;21.80;99.90
435;DHT22;204;48.942;9.256;2023-09-30T09:15:28;22.00;99.90
435;DHT22;204;48.942;9.256;2023-09-30T09:17:54;22.10;99.90
435;DHT22;204;48.942;9.256;2023-09-30T09:20:26;22.30;99.90
435;DHT22;204;48.942;9.256;2023-09-30T09:22:53;22.40;99.90
435;DHT22;204;48.942;9.256;2023-09-30T09:25:24;22.40;99.90
435;DHT22;204;48.942;9.256;2023-09-30T09:27:50;22.30;99.90
435;DHT22;204;48.942;9.256;2023-09-30T09:30:23;22.20;99.90
435;DHT22;204;48.942;9.256;2023-09-30T09:35:25;21.90;99.90
435;DHT22;204;48.942;9.256;2023-09-30T09:38:02;21.80;99.90
435;DHT22;204;48.942;9.256;2023-09-30T09:40:36;21.80;99.90
435;DHT22;204;48.942;9.256;2023-09-30T09:43:04;21.70;99.90
435;DHT22;204;48.942;9.256;2023-09-30T09:45:35;21.60;99.90
435;DHT22;204;48.942;9.256;2023-09-30T09:48:01;21.60;99.90
435;DHT22;204;48.942;9.256;2023-09-30T09:50:27;21.50;99.90
435;DHT22;204;48.942;9.256;2023-09-30T09:52:53;21.50;99.90
435;DHT22;204;48.942;9.256;2023-09-30T09:55:25;21.50;99.90
435;DHT22;204;48.942;9.256;2023-09-30T09:57:51;21.50;99.90
435;DHT22;204;48.942;9.256;2023-09-30T10:00:25;21.60;99.90
435;DHT22;204;48.942;9.256;2023-09-30T10:02:51;21.60;99.90
435;DHT22;204;48.942;9.256;2023-09-30T10:05:18;21.70;99.90
435;DHT22;204;48.942;9.256;2023-09-30T10:10:19;21.90;99.90
435;DHT22;204;48.942;9.256;2023-09-30T10:12:45;22.00;99.90
435;DHT22;204;48.942;9.256;2023-09-30T10:20:31;22.30;99.90
435;DHT22;204;48.942;9.256;2023-09-30T10:25:46;22.60;99.90
435;DHT22;204;48.942;9.256;2023-09-30T10:28:35;22.70;99.90
435;DHT22;204;48.942;9.256;2023-09-30T10:31:20;22.90;99.90
435;DHT22;204;48.942;9.256;2023-09-30T10:36:36;23.30;99.90
435;DHT22;204;48.942;9.256;2023-09-30T10:39:11;23.40;99.90
435;DHT22;204;48.942;9.256;2023-09-30T10:46:57;23.40;99.90
435;DHT22;204;48.942;9.256;2023-09-30T10:51:50;23.20;99.90
435;DHT22;204;48.942;9.256;2023-09-30T10:54:22;23.30;99.90
435;DHT22;204;48.942;9.256;2023-09-30T10:56:49;23.30;99.90
435;DHT22;204;48.942;9.256;2023-09-30T10:59:23;23.50;99.90
435;DHT22;204;48.942;9.256;2023-09-30T11:01:50;23.60;99.90
435;DHT22;204;48.942;9.256;2023-09-30T11:04:17;23.70;99.90
435;DHT22;204;48.942;9.256;2023-09-30T11:06:43;23.80;99.90
435;DHT22;204;48.942;9.256;2023-09-30T11:09:15;23.90;99.90
435;DHT22;204;48.942;9.256;2023-09-30T11:11:43;24.10;99.90
435;DHT22;204;48.942;9.256;2023-09-30T11:14:29;24.10;99.90
435;DHT22;204;48.942;9.256;2023-09-30T11:16:57;24.10;99.90
435;DHT22;204;48.942;9.256;2023-09-30T11:19:23;24.30;99.90
435;DHT22;204;48.942;9.256;2023-09-30T11:21:51;24.40;99.90
435;DHT22;204;48.942;9.256;2023-09-30T11:24:17;24.50;99.90
435;DHT22;204;48.942;9.256;2023-09-30T11:26:46;24.70;99.90
435;DHT22;204;48.942;9.256;2023-09-30T11:29:12;24.80;99.90
435;DHT22;204;48.942;9.256;2023-09-30T11:31:44;24.90;99.90
435;DHT22;204;48.942;9.256;2023-09-30T11:34:11;24.80;99.90
435;DHT22;204;48.942;9.256;2023-09-30T11:36:47;24.80;99.90
435;DHT22;204;48.942;9.256;2023-09-30T11:39:25;24.70;99.90
435;DHT22;204;48.942;9.256;2023-09-30T11:41:50;24.70;99.90
435;DHT22;204;48.942;9.256;2023-09-30T11:44:17;24.80;99.90
435;DHT22;204;48.942;9.256;2023-09-30T11:46:50;25.00;99.90
435;DHT22;204;48.942;9.256;2023-09-30T11:52:01;25.00;99.90
435;DHT22;204;48.942;9.256;2023-09-30T11:54:29;24.90;99.90
435;DHT22;204;48.942;9.256;2023-09-30T11:56:56;24.70;99.90
435;DHT22;204;48.942;9.256;2023-09-30T11:59:21;24.50;99.90
435;DHT22;204;48.942;9.256;2023-09-30T12:01:48;24.10;99.90
435;DHT22;204;48.942;9.256;2023-09-30T12:04:17;23.90;99.90
435;DHT22;204;48.942;9.256;2023-09-30T12:06:45;23.70;99.90
435;DHT22;204;48.942;9.256;2023-09-30T12:09:12;23.70;99.90
435;DHT22;204;48.942;9.256;2023-09-30T12:11:41;23.70;99.90
435;DHT22;204;48.942;9.256;2023-09-30T12:14:10;23.50;99.90
435;DHT22;204;48.942;9.256;2023-09-30T12:16:36;23.30;99.90
435;DHT22;204;48.942;9.256;2023-09-30T12:19:01;23.10;99.90
435;DHT22;204;48.942;9.256;2023-09-30T12:21:27;22.90;99.90
435;DHT22;204;48.942;9.256;2023-09-30T12:23:54;22.80;99.90
435;DHT22;204;48.942;9.256;2023-09-30T12:26:19;22.80;99.90
435;DHT22;204;48.942;9.256;2023-09-30T12:28:45;22.70;99.90
435;DHT22;204;48.942;9.256;2023-09-30T12:31:11;22.60;99.90
435;DHT22;204;48.942;9.256;2023-09-30T12:33:37;22.60;99.90
435;DHT22;204;48.942;9.256;2023-09-30T12:36:03;22.60;99.90
435;DHT22;204;48.942;9.256;2023-09-30T12:38:29;22.60;99.90
435;DHT22;204;48.942;9.256;2023-09-30T12:40:55;22.80;99.90
435;DHT22;204;48.942;9.256;2023-09-30T12:43:21;22.90;99.90
435;DHT22;204;48.942;9.256;2023-09-30T12:45:47;23.00;99.90
435;DHT22;204;48.942;9.256;2023-09-30T12:48:14;23.00;99.90
435;DHT22;204;48.942;9.256;2023-09-30T12:50:43;23.00;99.90
435;DHT22;204;48.942;9.256;2023-09-30T12:53:09;23.00;99.90
435;DHT22;204;48.942;9.256;2023-09-30T12:55:35;23.00;99.90
435;DHT22;204;48.942;9.256;2023-09-30T12:58:01;23.00;99.90
435;DHT22;204;48.942;9.256;2023-09-30T13:00:27;23.10;99.90
435;DHT22;204;48.942;9.256;2023-09-30T13:02:56;23.10;99.90
435;DHT22;204;48.942;9.256;2023-09-30T13:05:21;23.20;99.90
435;DHT22;204;48.942;9.256;2023-09-30T13:07:47;23.30;99.90
435;DHT22;204;48.942;9.256;2023-09-30T13:10:13;23.40;99.90
435;DHT22;204;48.942;9.256;2023-09-30T13:12:38;23.30;99.90
435;DHT22;204;48.942;9.256;2023-09-30T13:15:05;23.00;99.90
435;DHT22;204;48.942;9.256;2023-09-30T13:17:31;22.90;99.90
435;DHT22;204;48.942;9.256;2023-09-30T13:19:57;22.70;99.90
435;DHT22;204;48.942;9.256;2023-09-30T13:22:23;22.60;99.90
435;DHT22;204;48.942;9.256;2023-09-30T13:24:49;22.60;99.90
435;DHT22;204;48.942;9.256;2023-09-30T13:27:14;22.60;99.90
435;DHT22;204;48.942;9.256;2023-09-30T13:29:44;22.50;99.90
435;DHT22;204;48.942;9.256;2023-09-30T13:32:10;22.40;99.90
435;DHT22;204;48.942;9.256;2023-09-30T13:34:36;22.30;99.90
435;DHT22;204;48.942;9.256;2023-09-30T13:37:01;22.20;99.90
435;DHT22;204;48.942;9.256;2023-09-30T13:39:27;22.20;99.90
435;DHT22;204;48.942;9.256;2023-09-30T13:41:54;22.20;99.90
435;DHT22;204;48.942;9.256;2023-09-30T13:44:20;22.10;99.90
435;DHT22;204;48.942;9.256;2023-09-30T13:46:45;22.00;99.90
435;DHT22;204;48.942;9.256;2023-09-30T13:49:11;22.00;99.90
435;DHT22;204;48.942;9.256;2023-09-30T13:51:37;22.00;99.90
435;DHT22;204;48.942;9.256;2023-09-30T13:54:04;22.00;99.90
435;DHT22;204;48.942;9.256;2023-09-30T13:56:30;22.00;99.90
435;DHT22;204;48.942;9.256;2023-09-30T13:58:56;22.10;99.90
435;DHT22;204;48.942;9.256;2023-09-30T14:01:23;22.10;99.90
435;DHT22;204;48.942;9.256;2023-09-30T14:03:48;22.20;99.90
435;DHT22;204;48.942;9.256;2023-09-30T14:06:14;22.10;99.90
435;DHT22;204;48.942;9.256;2023-09-30T14:08:41;22.20;99.90
435;DHT22;204;48.942;9.256;2023-09-30T14:11:10;22.20;99.90
435;DHT22;204;48.942;9.256;2023-09-30T14:13:37;22.30;99.90
435;DHT22;204;48.942;9.256;2023-09-30T14:16:04;22.40;99.90
435;DHT22;204;48.942;9.256;2023-09-30T14:18:29;22.40;99.90
435;DHT22;204;48.942;9.256;2023-09-30T14:20:55;22.40;99.90
435;DHT22;204;48.942;9.256;2023-09-30T14:23:21;22.40;99.90
435;DHT22;204;48.942;9.256;2023-09-30T14:25:46;22.40;99.90
435;DHT22;204;48.942;9.256;2023-09-30T14:28:12;22.40;99.90
435;DHT22;204;48.942;9.256;2023-09-30T14:30:39;22.40;99.90
435;DHT22;204;48.942;9.256;2023-09-30T14:33:04;22.30;99.90
435;DHT22;204;48.942;9.256;2023-09-30T14:35:33;22.40;99.90
435;DHT22;204;48.942;9.256;2023-09-30T14:37:59;22.40;99.90
435;DHT22;204;48.942;9.256;2023-09-30T14:40:26;22.40;99.90
435;DHT22;204;48.942;9.256;2023-09-30T14:42:51;22.40;99.90
435;DHT22;204;48.942;9.256;2023-09-30T14:45:18;22.50;99.90
435;DHT22;204;48.942;9.256;2023-09-30T14:47:43;22.50;99.90
435;DHT22;204;48.942;9.256;2023-09-30T14:50:09;22.50;99.90
435;DHT22;204;48.942;9.256;2023-09-30T14:52:35;22.40;99.90
435;DHT22;204;48.942;9.256;2023-09-30T14:55:00;22.40;99.90
435;DHT22;204;48.942;9.256;2023-09-30T14:57:26;22.30;99.90
435;DHT22;204;48.942;9.256;2023-09-30T14:59:52;22.30;99.90
435;DHT22;204;48.942;9.256;2023-09-30T15:02:17;22.30;99.90
435;DHT22;204;48.942;9.256;2023-09-30T15:04:43;22.40;99.90
435;DHT22;204;48.942;9.256;2023-09-30T15:07:09;22.30;99.90
435;DHT22;204;48.942;9.256;2023-09-30T15:09:34;22.30;99.90
435;DHT22;204;48.942;9.256;2023-09-30T15:12:00;22.20;99.90
435;DHT22;204;48.942;9.256;2023-09-30T15:14:26;22.20;99.90
435;DHT22;204;48.942;9.256;2023-09-30T15:16:52;22.20;99.90
435;DHT22;204;48.942;9.256;2023-09-30T15:19:17;22.00;99.90
435;DHT22;204;48.942;9.256;2023-09-30T15:21:43;22.00;99.90
435;DHT22;204;48.942;9.256;2023-09-30T15:24:08;22.00;99.90
435;DHT22;204;48.942;9.256;2023-09-30T15:26:34;22.00;99.90
435;DHT22;204;48.942;9.256;2023-09-30T15:29:00;22.00;99.90
435;DHT22;204;48.942;9.256;2023-09-30T15:31:30;22.00;99.90
435;DHT22;204;48.942;9.256;2023-09-30T15:33:56;22.00;99.90
435;DHT22;204;48.942;9.256;2023-09-30T15:36:22;21.90;99.90
435;DHT22;204;48.942;9.256;2023-09-30T15:38:48;21.90;99.90
435;DHT22;204;48.942;9.256;2023-09-30T15:41:14;21.90;99.90
435;DHT22;204;48.942;9.256;2023-09-30T15:43:40;21.80;99.90
435;DHT22;204;48.942;9.256;2023-09-30T15:46:10;21.80;99.90
435;DHT22;204;48.942;9.256;2023-09-30T15:48:35;21.70;99.90
435;DHT22;204;48.942;9.256;2023-09-30T15:51:01;21.70;99.90
435;DHT22;204;48.942;9.256;2023-09-30T15:53:26;21.70;99.90
435;DHT22;204;48.942;9.256;2023-09-30T15:55:53;21.70;99.90
435;DHT22;204;48.942;9.256;2023-09-30T15:58:19;21.60;99.90
435;DHT22;204;48.942;9.256;2023-09-30T16:00:45;21.60;99.90
435;DHT22;204;48.942;9.256;2023-09-30T16:03:11;21.50;99.90
435;DHT22;204;48.942;9.256;2023-09-30T16:05:38;21.40;99.90
435;DHT22;204;48.942;9.256;2023-09-30T16:08:05;21.30;99.90
435;DHT22;204;48.942;9.256;2023-09-30T16:10:31;21.20;99.90
435;DHT22;204;48.942;9.256;2023-09-30T16:12:57;21.10;99.90
435;DHT22;204;48.942;9.256;2023-09-30T16:15:22;21.00;99.90
435;DHT22;204;48.942;9.256;2023-09-30T16:17:48;20.90;99.90
435;DHT22;204;48.942;9.256;2023-09-30T16:20:14;20.70;99.90
435;DHT22;204;48.942;9.256;2023-09-30T16:22:39;20.70;99.90
435;DHT22;204;48.942;9.256;2023-09-30T16:25:05;20.60;99.90
435;DHT22;204;48.942;9.256;2023-09-30T16:27:32;20.50;99.90
435;DHT22;204;48.942;9.256;2023-09-30T16:29:57;20.40;99.90
435;DHT22;204;48.942;9.256;2023-09-30T16:32:23;20.30;99.90
435;DHT22;204;48.942;9.256;2023-09-30T16:34:49;20.30;99.90
435;DHT22;204;48.942;9.256;2023-09-30T16:37:14;20.20;99.90
435;DHT22;204;48.942;9.256;2023-09-30T16:39:40;20.10;99.90
435;DHT22;204;48.942;9.256;2023-09-30T16:42:07;20.10;99.90
435;DHT22;204;48.942;9.256;2023-09-30T16:44:32;20.00;99.90
435;DHT22;204;48.942;9.256;2023-09-30T16:46:58;19.90;99.90
435;DHT22;204;48.942;9.256;2023-09-30T16:49:24;19.90;99.90
435;DHT22;204;48.942;9.256;2023-09-30T16:51:50;19.80;99.90
435;DHT22;204;48.942;9.256;2023-09-30T16:54:15;19.70;99.90
435;DHT22;204;48.942;9.256;2023-09-30T16:56:42;19.60;99.90
435;DHT22;204;48.942;9.256;2023-09-30T16:59:09;19.50;99.90
435;DHT22;204;48.942;9.256;2023-09-30T17:01:35;19.30;99.90
435;DHT22;204;48.942;9.256;2023-09-30T17:04:02;19.30;99.90